createdAt,value
2022-08-30T00:10:13.007Z,18.14
2022-08-30T00:30:12.970Z,17.92
2022-08-30T00:50:12.954Z,17.84
2022-08-30T01:10:12.913Z,17.87
2022-08-30T01:30:12.899Z,17.83
2022-08-30T01:50:12.863Z,17.62
2022-08-30T02:10:12.834Z,17.47
2022-08-30T02:30:12.806Z,17.46
2022-08-30T02:50:12.780Z,17.22
2022-08-30T03:10:12.756Z,17.25
2022-08-30T03:30:12.724Z,17.13
2022-08-30T03:50:12.706Z,17.07
2022-08-30T04:10:12.672Z,17.07
2022-08-30T04:30:12.636Z,16.95
2022-08-30T04:50:12.610Z,16.95
2022-08-30T05:10:12.587Z,16.73
2022-08-30T05:30:12.568Z,17.32
2022-08-30T05:50:12.535Z,17.73
2022-08-30T06:10:12.505Z,18.16
2022-08-30T06:30:12.482Z,18.63
2022-08-30T06:50:12.447Z,18.92
2022-08-30T07:10:12.421Z,19.45
2022-08-30T07:30:12.379Z,19.80
2022-08-30T07:50:12.362Z,20.24
2022-08-30T08:10:12.331Z,20.82
2022-08-30T08:30:12.289Z,21.29
2022-08-30T08:50:12.260Z,21.97
2022-08-30T09:10:12.239Z,22.50
2022-08-30T09:30:12.208Z,22.74
2022-08-30T09:50:12.209Z,23.46
2022-08-30T10:10:12.148Z,23.91
2022-08-30T10:30:12.128Z,24.05
2022-08-30T10:50:12.095Z,24.46
2022-08-30T11:10:12.069Z,24.65
2022-08-30T11:30:12.018Z,25.19
2022-08-30T11:50:12.001Z,25.28
2022-08-30T12:10:11.996Z,25.65
2022-08-30T12:30:11.960Z,25.74
2022-08-30T12:50:11.898Z,26.06
2022-08-30T13:10:11.878Z,26.28
2022-08-30T13:30:11.840Z,26.33
2022-08-30T13:50:11.791Z,25.97
2022-08-30T14:10:11.767Z,25.74
2022-08-30T14:30:11.844Z,25.44
2022-08-30T14:50:11.697Z,25.30
2022-08-30T15:10:11.669Z,25.11
2022-08-30T15:30:11.640Z,24.92
2022-08-30T16:10:11.575Z,24.48
2022-08-30T16:30:11.562Z,24.26
2022-08-30T16:50:11.539Z,24.06
2022-08-30T17:10:13.244Z,23.79
2022-08-30T17:30:11.516Z,23.48
2022-08-30T17:50:11.453Z,23.04
2022-08-30T18:10:13.396Z,22.74
2022-08-30T18:30:11.401Z,22.49
2022-08-30T18:50:11.323Z,22.20
2022-08-30T19:10:11.305Z,22.01
2022-08-30T19:30:11.299Z,21.73
2022-08-30T19:50:11.269Z,21.51
2022-08-30T20:10:11.202Z,21.39
2022-08-30T20:30:11.187Z,21.17
2022-08-30T20:50:11.143Z,21.05
2022-08-30T21:10:11.124Z,20.78
2022-08-30T21:30:11.087Z,20.57
2022-08-30T21:50:11.055Z,20.42
2022-08-30T22:10:11.028Z,20.25
2022-08-30T22:30:11.003Z,20.24
2022-08-30T22:50:10.973Z,19.99
2022-08-30T23:10:10.948Z,19.82
2022-08-30T23:30:10.915Z,19.75
2022-08-30T23:50:10.878Z,19.76
